createdAt,value
2022-08-01T11:56:06.813Z,2.10
2022-08-01T11:58:34.979Z,1.70
2022-08-01T12:01:02.078Z,1.90
2022-08-01T12:03:34.679Z,3.30
2022-08-01T12:06:01.939Z,1.90
2022-08-01T12:08:30.793Z,2.10
2022-08-01T12:11:02.093Z,2.70
2022-08-01T12:13:40.061Z,2.30
2022-08-01T12:16:12.171Z,2.40
2022-08-01T12:18:43.548Z,2.30
2022-08-01T12:21:10.363Z,2.10
2022-08-01T12:23:37.579Z,3.00
2022-08-01T12:26:05.227Z,1.80
2022-08-01T12:28:41.993Z,1.70
2022-08-01T12:31:08.677Z,1.80
2022-08-01T12:33:35.466Z,2.00
2022-08-01T12:36:02.343Z,2.00
2022-08-01T12:38:32.042Z,1.80
2022-08-01T12:40:59.518Z,2.10
2022-08-01T12:43:28.923Z,1.90
2022-08-01T12:46:00.527Z,2.00
2022-08-01T12:48:29.158Z,2.10
2022-08-01T12:50:59.176Z,2.00
2022-08-01T12:53:40.202Z,1.90
2022-08-01T12:56:11.814Z,2.00
2022-08-01T12:58:39.408Z,2.20
2022-08-01T13:01:11.851Z,3.00
2022-08-01T13:03:39.130Z,2.00
2022-08-01T13:06:17.781Z,1.90
2022-08-01T13:08:47.315Z,2.20
2022-08-01T13:11:17.809Z,2.60
2022-08-01T13:13:51.348Z,2.00
2022-08-01T13:16:49.249Z,2.30
2022-08-01T13:19:18.103Z,2.50
2022-08-01T13:21:58.422Z,2.00
2022-08-01T13:24:30.203Z,2.90
2022-08-01T13:27:02.258Z,3.50
2022-08-01T13:29:39.071Z,2.10
2022-08-01T13:32:23.070Z,4.30
2022-08-01T13:35:08.713Z,4.20
2022-08-01T13:37:38.948Z,2.60
2022-08-01T13:40:08.222Z,2.20
2022-08-01T13:42:35.732Z,2.20
2022-08-01T13:45:11.882Z,2.40
2022-08-01T13:48:03.550Z,2.40
2022-08-01T13:50:30.090Z,2.50
2022-08-01T13:52:57.618Z,3.10
2022-08-01T13:55:24.350Z,2.60
2022-08-01T13:57:51.299Z,2.40
2022-08-01T14:00:19.482Z,2.60
2022-08-01T14:02:46.207Z,2.20
2022-08-01T14:05:13.009Z,2.20
2022-08-01T14:07:41.494Z,2.40
2022-08-01T14:10:18.491Z,2.40
2022-08-01T14:12:49.398Z,2.50
2022-08-01T14:15:25.670Z,2.30
2022-08-01T14:18:05.646Z,2.50
2022-08-01T14:20:34.508Z,2.10
2022-08-01T14:23:01.299Z,2.30
2022-08-01T14:26:03.013Z,2.40
2022-08-01T14:28:15.389Z,2.50
2022-08-01T14:30:44.434Z,2.40
2022-08-01T14:33:12.854Z,2.20
2022-08-01T14:36:02.202Z,2.80
2022-08-01T14:38:32.473Z,2.50
2022-08-01T14:41:00.584Z,2.40
2022-08-01T14:43:33.032Z,2.40
2022-08-01T14:46:02.407Z,2.50
2022-08-01T14:48:30.314Z,2.40
2022-08-01T14:50:58.403Z,2.40
2022-08-01T14:53:25.177Z,2.20
2022-08-01T14:55:52.101Z,2.40
2022-08-01T14:58:20.091Z,2.60
2022-08-01T15:00:47.724Z,2.80
2022-08-01T15:03:18.489Z,2.70
2022-08-01T15:05:45.424Z,2.20
2022-08-01T15:08:12.389Z,2.20
2022-08-01T15:10:39.257Z,2.10
2022-08-01T15:13:06.388Z,3.40
2022-08-01T15:15:33.245Z,2.30
2022-08-01T15:18:00.415Z,2.40
2022-08-01T15:20:28.627Z,2.20
2022-08-01T15:22:55.442Z,2.30
2022-08-01T15:25:22.431Z,2.40
2022-08-01T15:27:49.356Z,2.40
2022-08-01T15:30:27.317Z,2.30
2022-08-01T15:32:55.474Z,2.30
2022-08-01T15:35:22.345Z,2.20
2022-08-01T15:37:49.146Z,2.20
2022-08-01T15:40:15.983Z,2.00
2022-08-01T15:42:42.753Z,1.90
2022-08-01T15:45:25.553Z,2.20
2022-08-01T15:47:58.054Z,2.50
2022-08-01T15:50:25.451Z,2.30
2022-08-01T15:52:52.223Z,2.50
2022-08-01T15:55:19.016Z,2.70
2022-08-01T15:57:46.698Z,2.30
2022-08-01T16:00:15.004Z,2.50
2022-08-01T16:02:41.967Z,2.50
2022-08-01T16:05:10.193Z,2.20
2022-08-01T16:07:59.458Z,2.40
2022-08-01T16:10:25.176Z,2.80
2022-08-01T16:12:52.809Z,2.20
2022-08-01T16:15:19.713Z,2.40
2022-08-01T16:17:46.848Z,2.20
2022-08-01T16:20:13.674Z,2.40
2022-08-01T16:22:40.411Z,2.50
2022-08-01T16:25:08.427Z,2.50
2022-08-01T16:27:35.222Z,2.50
2022-08-01T16:30:06.496Z,2.30
2022-08-01T16:32:38.160Z,2.50
2022-08-01T16:35:07.575Z,2.40
2022-08-01T16:37:34.527Z,2.60
2022-08-01T16:40:01.300Z,2.70
2022-08-01T16:42:28.583Z,2.70
2022-08-01T16:45:00.124Z,3.20
2022-08-01T16:47:27.697Z,2.60
2022-08-01T16:49:54.867Z,3.10
2022-08-01T16:52:21.968Z,2.80
2022-08-01T16:54:58.220Z,2.90
2022-08-01T16:57:26.166Z,2.70
2022-08-01T16:59:52.968Z,2.90
2022-08-01T17:02:23.009Z,2.60
2022-08-01T17:04:49.812Z,2.70
2022-08-01T17:07:16.795Z,3.20
2022-08-01T17:09:46.774Z,3.10
2022-08-01T17:12:22.698Z,2.80
2022-08-01T17:14:50.894Z,3.10
2022-08-01T17:17:18.034Z,3.70
2022-08-01T17:19:45.858Z,3.40
2022-08-01T17:22:14.044Z,3.50
2022-08-01T17:24:43.941Z,3.30
2022-08-01T17:27:13.370Z,3.00
2022-08-01T17:29:44.083Z,3.20
2022-08-01T17:32:13.469Z,3.10
2022-08-01T17:34:43.027Z,3.00
2022-08-01T17:37:10.997Z,3.00
2022-08-01T17:39:40.057Z,2.80
2022-08-01T17:42:11.442Z,2.80
2022-08-01T17:44:41.712Z,2.70
2022-08-01T17:47:34.424Z,2.70
2022-08-01T17:50:04.539Z,3.00
2022-08-01T17:52:33.147Z,2.90
2022-08-01T17:55:02.498Z,2.80
2022-08-01T17:57:29.967Z,2.80
2022-08-01T17:59:58.592Z,3.20
2022-08-01T18:02:27.008Z,3.20
2022-08-01T18:04:54.560Z,3.00
2022-08-01T18:07:22.536Z,3.10
2022-08-01T18:10:11.724Z,3.40
2022-08-01T18:12:39.035Z,3.10
2022-08-01T18:15:06.542Z,3.20
2022-08-01T18:17:34.003Z,3.10
2022-08-01T18:20:00.825Z,3.70
2022-08-01T18:22:31.669Z,4.50
2022-08-01T18:25:08.502Z,3.90
2022-08-01T18:28:16.758Z,3.70
2022-08-01T18:30:27.880Z,3.40
2022-08-01T18:32:56.339Z,3.20
2022-08-01T18:35:25.666Z,3.60
2022-08-01T18:38:12.224Z,3.60
2022-08-01T18:40:41.129Z,3.40
2022-08-01T18:43:08.028Z,3.70
2022-08-01T18:45:38.445Z,3.70
2022-08-01T18:48:08.448Z,4.00
2022-08-01T18:50:38.579Z,3.50
2022-08-01T18:53:05.532Z,3.40
2022-08-01T18:55:33.012Z,3.70
2022-08-01T18:58:02.697Z,3.10
2022-08-01T19:00:29.845Z,3.50
2022-08-01T19:02:57.070Z,3.60
2022-08-01T19:05:24.773Z,3.50
2022-08-01T19:08:06.170Z,3.80
2022-08-01T19:10:41.587Z,3.90
2022-08-01T19:13:09.333Z,3.80
2022-08-01T19:15:36.329Z,4.00
2022-08-01T19:18:04.065Z,3.90
2022-08-01T19:20:31.559Z,4.10
2022-08-01T19:22:58.967Z,4.00
2022-08-01T19:25:27.452Z,4.20
2022-08-01T19:27:58.899Z,4.00
2022-08-01T19:30:26.629Z,3.80
2022-08-01T19:32:56.368Z,4.30
2022-08-01T19:35:25.550Z,4.60
2022-08-01T19:37:54.426Z,4.60
2022-08-01T19:40:27.484Z,4.50
2022-08-01T19:42:57.231Z,5.20
2022-08-01T19:45:29.375Z,4.70
2022-08-01T19:47:57.767Z,5.80
2022-08-01T19:50:29.620Z,5.90
2022-08-01T19:52:57.809Z,5.40
2022-08-01T19:55:25.434Z,4.70
2022-08-01T20:00:41.346Z,4.40
2022-08-01T20:03:10.161Z,4.70
2022-08-01T20:05:37.785Z,4.60
2022-08-01T20:08:14.064Z,5.40
2022-08-01T20:10:41.122Z,5.60
2022-08-01T20:13:11.624Z,5.20
2022-08-01T20:15:39.154Z,5.00
2022-08-01T20:18:07.944Z,5.30
2022-08-01T20:20:36.961Z,5.10
2022-08-01T20:23:09.472Z,6.20
2022-08-01T20:25:39.877Z,5.30
2022-08-01T20:28:12.812Z,5.20
2022-08-01T20:30:42.894Z,4.70
2022-08-01T20:33:12.664Z,5.00
2022-08-01T20:35:53.061Z,5.10
2022-08-01T20:38:27.462Z,5.20
2022-08-01T20:40:59.487Z,5.30
2022-08-01T20:43:34.768Z,5.00
2022-08-01T20:46:02.201Z,4.60
2022-08-01T20:48:31.087Z,4.90
2022-08-01T20:51:15.612Z,4.60
2022-08-01T20:53:50.655Z,4.70
2022-08-01T20:56:17.861Z,4.30
2022-08-01T20:59:39.618Z,4.40
2022-08-01T21:02:30.531Z,4.30
2022-08-01T21:05:16.244Z,5.10
2022-08-01T21:07:45.342Z,4.40
2022-08-01T21:10:16.201Z,4.50
2022-08-01T21:13:03.695Z,4.70
2022-08-01T21:15:37.987Z,4.70
2022-08-01T21:18:32.187Z,4.80
2022-08-01T21:21:04.284Z,5.00
2022-08-01T21:23:57.509Z,4.40
2022-08-01T21:26:25.287Z,4.70
2022-08-01T21:28:54.613Z,4.60
2022-08-01T21:31:24.526Z,4.50
2022-08-01T21:34:02.378Z,4.50
2022-08-01T21:36:32.037Z,5.30
2022-08-01T21:39:01.384Z,5.00
2022-08-01T21:41:56.512Z,5.20
2022-08-01T21:44:43.293Z,5.70
2022-08-01T21:47:19.189Z,5.60
2022-08-01T21:49:46.248Z,5.30
2022-08-01T21:52:21.647Z,5.20
2022-08-01T21:55:05.146Z,5.50
2022-08-01T21:57:59.128Z,5.00
2022-08-01T22:00:26.458Z,5.40
2022-08-01T22:03:30.714Z,4.90
2022-08-01T22:06:01.585Z,5.40
2022-08-01T22:08:30.745Z,5.10
2022-08-01T22:11:00.892Z,5.00
2022-08-01T22:13:28.341Z,4.80
2022-08-01T22:15:59.438Z,4.80
2022-08-01T22:18:28.565Z,4.90
2022-08-01T22:20:57.335Z,4.90
2022-08-01T22:23:28.404Z,4.90
2022-08-01T22:25:55.840Z,5.40
2022-08-01T22:28:23.539Z,5.50
2022-08-01T22:30:52.468Z,5.20
2022-08-01T22:33:22.578Z,4.70
2022-08-01T22:35:53.046Z,5.00
2022-08-01T22:38:25.328Z,4.80
2022-08-01T22:40:54.785Z,5.10
2022-08-01T22:43:33.068Z,4.80
2022-08-01T22:46:09.781Z,5.20
2022-08-01T22:48:45.895Z,5.30
2022-08-01T22:51:43.277Z,5.00
2022-08-01T22:54:38.509Z,4.90
2022-08-01T22:57:11.400Z,4.70
2022-08-01T22:59:54.595Z,5.00
2022-08-01T23:02:22.753Z,5.00
2022-08-01T23:04:54.635Z,4.80
2022-08-01T23:07:28.909Z,4.90
2022-08-01T23:09:57.670Z,4.90
2022-08-01T23:12:27.073Z,5.40
2022-08-01T23:14:56.445Z,4.80
2022-08-01T23:17:29.740Z,5.10
2022-08-01T23:20:08.192Z,4.80
2022-08-01T23:22:37.653Z,4.90
2022-08-01T23:25:10.996Z,4.60
2022-08-01T23:27:51.625Z,4.60
2022-08-01T23:30:31.591Z,4.80
2022-08-01T23:32:59.420Z,4.80
2022-08-01T23:35:31.946Z,4.60
2022-08-01T23:38:03.672Z,4.70
2022-08-01T23:40:32.630Z,4.50
2022-08-01T23:43:00.713Z,4.80
2022-08-01T23:46:02.118Z,5.10
2022-08-01T23:48:16.646Z,4.70
2022-08-01T23:50:43.750Z,4.80
2022-08-01T23:53:12.241Z,5.20
2022-08-01T23:55:44.043Z,4.80
2022-08-01T23:58:13.631Z,4.80
